Aérodrome :
LOGIN :

S'inscrire | Disclaimer

   EN    FR    IT 

 










Légende :    VFR   VFR Marginal   IFR   IFR Intensif   IFR Très Intensif
Visi : 
Plafond : 
>= 8 km
>= 3000ft
5 à 8 km
1000 à 3000 ft
1500m à 5 km
500 à 1000 ft
800 à 1500m
200 à 500 ft
< 800m
< 200 ft
Symboles :   Orages  Brouillard  Fortes neiges  Fortes précipitations  Vent > 20 kt
SIGMETs :   Divers  Orages  Givrage  Turbulence  Onde Orograph.  Cendres Volcan.







- Altitude de l'aérodrome : 423 ft
- Code IATA : PIS
- Voir les cartes d'approche


LFBI - Poitiers

DERNIER METAR :
  • 200100Z AUTO 28005KT CAVOK 12/10 Q1011 BECMG BKN010

METARs EXPIRÉS :
  • 200030Z AUTO 27005KT CAVOK 12/10 Q1011 BECMG BKN010
  • 200000Z AUTO 29004KT 9999 BKN037 OVC094 12/10 Q1011 BECMG BKN010
  • 192330Z AUTO 28003KT 9999 FEW032 BKN044 BKN078 12/10 Q1011 BECMG BKN010
  • 192300Z AUTO 29005KT 9999 FEW035 OVC076 12/10 Q1011 BECMG BKN010
  • 192230Z AUTO 29005KT CAVOK 12/10 Q1011 BECMG BKN010

TAF TAF LFBI
Valide du 20 à 00h jusqu'au 21 à 00h UTC


192300Z 2000/2024 29005KT 9999 BKN030
BECMG 2000/2002 BKN010
BECMG 2007/2009 BKN015
BECMG 2009/2011 OVC035
TEMPO 2012/2018 4000 SHRA BKN035TCU
Pas de NOTAMs connus pour ce terrain.



MET'MAP, la Météo Aéronautique d'un coup d'oeil ! - Copyright ORBIFLY Décembre 2007 - Disclaimer

ORBIFLY MET'MAP TEAM :

Programmation & Développement : Alexandra Zaïnal
Conception & Développement : Baudouin d'Aumeries
Co-Programmation & Développement : Marc-Olivier Méhu
Soutien technique & logistique : Manuel Goepfert

Contact : metmap@orbifly.com




SOURCES & CREDITS :

   NOAA